Time;durP1;ratioP1;P1;durP2;ratioP2;P2;SDS_P1;SDS_P2;PMS_P1;PMS_P2;Temp;Humidity;BMP_temperature;BMP_pressure;BME280_temperature;BME280_humidity;BME280_pressure;Samples;Min_cycle;Max_cycle;Signal;HPM_P1;HPM_P2
2024/01/21 00:01:34;;;;;;;25.48;12.75;;;;;;;-6.95;100.00;98462.28;5009317;28;20413;-77
2024/01/21 00:04:00;;;;;;;20.65;12.25;;;;;;;-6.98;100.00;98462.50;5001416;28;20453;-77
2024/01/21 00:06:26;;;;;;;20.15;11.40;;;;;;;-6.99;100.00;98462.63;4992611;28;20430;-77
2024/01/21 00:08:52;;;;;;;20.20;11.32;;;;;;;-7.01;100.00;98464.50;4992299;28;20438;-77
2024/01/21 00:11:18;;;;;;;20.63;11.70;;;;;;;-7.04;100.00;98456.06;4992475;28;20407;-76
2024/01/21 00:13:44;;;;;;;18.10;11.10;;;;;;;-7.05;100.00;98462.13;4992670;28;20551;-77
2024/01/21 00:16:12;;;;;;;20.35;11.13;;;;;;;-7.07;100.00;98456.28;5008574;28;20409;-77
2024/01/21 00:18:38;;;;;;;20.38;10.90;;;;;;;-7.07;100.00;98460.63;5008910;28;20436;-77
2024/01/21 00:21:04;;;;;;;19.33;11.07;;;;;;;-7.09;100.00;98462.50;5011701;28;20417;-77
2024/01/21 00:23:30;;;;;;;18.60;10.70;;;;;;;-7.11;100.00;98461.78;5005027;28;20746;-77
2024/01/21 00:25:58;;;;;;;21.20;11.50;;;;;;;-7.13;100.00;98454.16;5012263;28;20407;-77
2024/01/21 00:28:24;;;;;;;18.63;10.52;;;;;;;-7.13;100.00;98445.63;5012169;28;20405;-77
2024/01/21 00:30:50;;;;;;;18.85;11.45;;;;;;;-7.14;100.00;98452.53;5011572;28;20397;-77
2024/01/21 00:33:20;;;;;;;17.63;10.20;;;;;;;-7.14;100.00;98446.59;5010883;28;20437;-77
2024/01/21 00:35:46;;;;;;;16.48;10.02;;;;;;;-7.16;100.00;98443.31;4997304;28;20438;-77
2024/01/21 00:38:12;;;;;;;16.05;9.18;;;;;;;-7.17;100.00;98444.22;4992135;28;20402;-77
2024/01/21 00:40:38;;;;;;;16.17;9.43;;;;;;;-7.20;100.00;98436.72;4992322;28;20423;-77
2024/01/21 00:43:04;;;;;;;18.17;10.00;;;;;;;-7.22;100.00;98447.16;5010860;28;20933;-77
2024/01/21 00:45:30;;;;;;;20.70;10.57;;;;;;;-7.24;100.00;98446.44;5011804;28;20441;-77
2024/01/21 00:47:57;;;;;;;17.63;9.60;;;;;;;-7.25;100.00;98446.56;5012136;28;20837;-77
2024/01/21 00:50:24;;;;;;;14.05;8.82;;;;;;;-7.24;100.00;98451.59;5010750;28;20467;-77
2024/01/21 00:52:51;;;;;;;14.77;9.35;;;;;;;-7.24;100.00;98441.31;5011900;28;20396;-77
2024/01/21 00:55:18;;;;;;;16.25;9.27;;;;;;;-7.24;100.00;98446.44;5012129;28;20463;-77
2024/01/21 00:57:45;;;;;;;13.43;8.60;;;;;;;-7.24;100.00;98441.31;5015681;28;20854;-77
2024/01/21 01:00:12;;;;;;;15.35;8.80;;;;;;;-7.25;100.00;98444.81;5015850;28;20420;-77
2024/01/21 01:02:38;;;;;;;13.30;7.95;;;;;;;-7.22;100.00;98446.34;5016156;28;20403;-77
2024/01/21 01:05:05;;;;;;;16.03;9.50;;;;;;;-7.24;100.00;98456.72;5016119;28;20435;-77
2024/01/21 01:07:33;;;;;;;12.05;7.55;;;;;;;-7.24;100.00;98456.72;5016135;28;21080;-77
2024/01/21 01:09:59;;;;;;;12.32;7.55;;;;;;;-7.25;100.00;98456.84;5015306;28;20432;-77
2024/01/21 01:12:25;;;;;;;13.00;7.68;;;;;;;-7.28;100.00;98450.16;5015460;28;20878;-77
2024/01/21 01:14:52;;;;;;;14.53;8.20;;;;;;;-7.31;100.00;98440.13;5002884;28;20493;-77
2024/01/21 01:17:18;;;;;;;12.52;7.72;;;;;;;-7.33;100.00;98434.25;4995994;28;20398;-77
2024/01/21 01:19:44;;;;;;;11.63;6.72;;;;;;;-7.33;100.00;98428.28;4995528;28;20505;-77
2024/01/21 01:22:12;;;;;;;10.70;7.18;;;;;;;-7.33;100.00;98425.72;4996043;28;20745;-77
2024/01/21 01:24:41;;;;;;;11.70;7.10;;;;;;;-7.34;100.00;98424.91;4995839;28;20786;-77
2024/01/21 01:27:07;;;;;;;10.93;6.43;;;;;;;-7.34;100.00;98424.06;4997369;28;20407;-77
2024/01/21 01:29:33;;;;;;;9.33;6.33;;;;;;;-7.34;100.00;98429.22;4995898;28;20468;-77
2024/01/21 01:32:00;;;;;;;9.63;6.40;;;;;;;-7.35;100.00;98427.56;4996242;28;20425;-77
2024/01/21 01:34:26;;;;;;;8.70;5.78;;;;;;;-7.37;100.00;98422.56;4995126;28;20880;-76
2024/01/21 01:36:52;;;;;;;7.88;5.43;;;;;;;-7.41;100.00;98421.16;4995572;28;20506;-77
2024/01/21 01:39:18;;;;;;;8.60;5.38;;;;;;;-7.43;100.00;98415.28;4996331;28;20486;-77
2024/01/21 01:41:45;;;;;;;7.95;5.53;;;;;;;-7.45;100.00;98412.84;4996464;28;20422;-77
2024/01/21 01:44:12;;;;;;;7.83;5.43;;;;;;;-7.47;100.00;98419.84;4996480;28;20494;-77
2024/01/21 01:46:38;;;;;;;8.55;5.13;;;;;;;-7.50;100.00;98411.53;4996978;28;20403;-77
2024/01/21 01:49:04;;;;;;;6.93;5.05;;;;;;;-7.52;100.00;98414.22;4997144;28;20399;-77
2024/01/21 01:51:33;;;;;;;8.68;5.63;;;;;;;-7.53;100.00;98406.63;4997131;28;20745;-77
2024/01/21 01:53:59;;;;;;;8.60;6.07;;;;;;;-7.54;100.00;98410.13;4997205;28;20490;-77
2024/01/21 01:56:25;;;;;;;8.57;5.70;;;;;;;-7.55;100.00;98403.34;4995967;28;20405;-77
2024/01/21 01:58:54;;;;;;;9.88;6.00;;;;;;;-7.55;100.00;98408.50;4996090;28;20406;-77
2024/01/21 02:01:21;;;;;;;10.50;6.33;;;;;;;-7.56;100.00;98406.84;4995273;28;20955;-77
2024/01/21 02:03:47;;;;;;;7.93;5.43;;;;;;;-7.57;100.00;98400.88;4995023;28;20495;-77
2024/01/21 02:06:14;;;;;;;8.95;5.70;;;;;;;-7.56;100.00;98399.13;4995184;28;20478;-77
2024/01/21 02:08:41;;;;;;;8.98;6.00;;;;;;;-7.56;100.00;98394.81;4995464;28;20398;-78
2024/01/21 02:11:07;;;;;;;8.18;5.45;;;;;;;-7.56;100.00;98384.53;4997702;28;20442;-78
2024/01/21 02:13:33;;;;;;;7.45;5.25;;;;;;;-7.53;100.00;98388.63;5014727;28;20401;-78
2024/01/21 02:16:01;;;;;;;9.10;5.43;;;;;;;-7.48;100.00;98378.81;5014418;28;20413;-78
2024/01/21 02:18:28;;;;;;;8.03;5.80;;;;;;;-7.41;100.00;98385.16;5014449;28;20408;-77
2024/01/21 02:20:54;;;;;;;11.48;6.78;;;;;;;-7.32;100.00;98376.75;5014654;28;20416;-78
2024/01/21 02:23:22;;;;;;;11.20;6.35;;;;;;;-7.25;100.00;98372.78;5015458;28;20401;-78
2024/01/21 02:25:48;;;;;;;10.93;6.47;;;;;;;-7.16;100.00;98356.66;5015294;28;20396;-78
2024/01/21 02:28:14;;;;;;;12.45;7.30;;;;;;;-7.09;100.00;98357.00;5014638;28;20810;-77
2024/01/21 02:30:42;;;;;;;11.23;6.80;;;;;;;-7.05;100.00;98350.69;5013793;28;20422;-77
2024/01/21 02:33:13;;;;;;;10.48;6.30;;;;;;;-7.00;100.00;98363.22;5014042;28;20401;-78
2024/01/21 02:35:39;;;;;;;10.75;6.22;;;;;;;-7.00;100.00;98365.78;5014040;28;20404;-78
2024/01/21 02:38:05;;;;;;;10.18;6.55;;;;;;;-7.00;100.00;98355.50;5014347;28;20412;-77
2024/01/21 02:40:34;;;;;;;10.57;6.28;;;;;;;-7.01;100.00;98370.13;5013771;28;20452;-78
2024/01/21 02:43:00;;;;;;;9.77;6.57;;;;;;;-7.01;100.00;98374.44;5014460;28;20758;-78
2024/01/21 02:45:26;;;;;;;9.25;6.28;;;;;;;-7.01;100.00;98377.00;5008590;28;20409;-76
2024/01/21 02:47:53;;;;;;;9.30;6.15;;;;;;;-7.01;100.00;98380.41;4998946;28;20405;-77
2024/01/21 02:50:19;;;;;;;9.47;6.03;;;;;;;-7.03;100.00;98372.78;4995604;28;20508;-76
2024/01/21 02:52:45;;;;;;;8.48;5.82;;;;;;;-7.05;100.00;98373.84;4992817;28;20783;-76
2024/01/21 02:55:11;;;;;;;9.65;6.07;;;;;;;-7.09;100.00;98369.88;4992850;28;20456;-76
2024/01/21 02:57:39;;;;;;;8.20;5.47;;;;;;;-7.12;100.00;98372.66;4993116;28;20452;-78
2024/01/21 03:00:07;;;;;;;9.32;5.80;;;;;;;-7.17;100.00;98367.06;4993605;28;20422;-76
2024/01/21 03:02:33;;;;;;;8.10;5.35;;;;;;;-7.20;100.00;98364.72;4994000;28;20783;-78
2024/01/21 03:04:59;;;;;;;9.15;5.90;;;;;;;-7.23;100.00;98367.53;4998266;28;20413;-77
2024/01/21 03:07:25;;;;;;;12.40;7.22;;;;;;;-7.25;100.00;98359.09;4993575;28;20414;-78
2024/01/21 03:09:52;;;;;;;11.35;7.05;;;;;;;-7.26;100.00;98352.31;4993571;28;20414;-78
2024/01/21 03:12:18;;;;;;;10.57;6.65;;;;;;;-7.27;100.00;98354.06;4993908;28;20454;-78
2024/01/21 03:14:45;;;;;;;9.57;6.35;;;;;;;-7.27;100.00;98356.63;4993403;28;20408;-78
2024/01/21 03:17:11;;;;;;;7.83;5.67;;;;;;;-7.27;100.00;98358.38;4993600;28;20516;-78
2024/01/21 03:19:37;;;;;;;7.72;5.88;;;;;;;-7.30;100.00;98358.63;4992511;28;20988;-77
2024/01/21 03:22:04;;;;;;;8.07;5.65;;;;;;;-7.36;100.00;98352.19;4993747;28;20415;-77
2024/01/21 03:24:32;;;;;;;5.97;4.60;;;;;;;-7.41;100.00;98354.28;4993521;28;20453;-78
2024/01/21 03:26:58;;;;;;;7.57;5.28;;;;;;;-7.44;100.00;98354.50;4993299;28;20399;-78
2024/01/21 03:29:24;;;;;;;7.38;5.15;;;;;;;-7.47;100.00;98344.47;4993797;28;20834;-78
2024/01/21 03:31:52;;;;;;;7.85;5.28;;;;;;;-7.48;100.00;98345.41;4993793;28;20413;-77
2024/01/21 03:34:18;;;;;;;8.95;5.70;;;;;;;-7.49;100.00;98343.75;4993858;28;20436;-77
2024/01/21 03:36:44;;;;;;;9.07;5.53;;;;;;;-7.50;100.00;98342.94;4993763;28;20477;-77
2024/01/21 03:39:10;;;;;;;6.70;4.97;;;;;;;-7.52;100.00;98331.16;4993639;28;20403;-78
2024/01/21 03:41:36;;;;;;;8.07;5.25;;;;;;;-7.54;100.00;98340.72;4993965;28;20516;-78
2024/01/21 03:44:03;;;;;;;7.82;5.10;;;;;;;-7.57;100.00;98341.75;4993857;28;20724;-78
2024/01/21 03:46:30;;;;;;;8.15;5.80;;;;;;;-7.57;100.00;98346.91;4994110;28;20457;-78
2024/01/21 03:48:57;;;;;;;6.85;4.90;;;;;;;-7.59;100.00;98342.81;4994517;28;20413;-78
2024/01/21 03:51:23;;;;;;;6.95;5.00;;;;;;;-7.59;100.00;98341.03;4993173;28;20787;-78
2024/01/21 03:53:50;;;;;;;7.00;5.22;;;;;;;-7.57;100.00;98341.75;4993348;28;20437;-78
2024/01/21 03:56:19;;;;;;;10.73;6.05;;;;;;;-7.54;100.00;98346.69;4992766;28;20410;-77
2024/01/21 03:58:45;;;;;;;12.82;7.72;;;;;;;-7.53;100.00;98347.50;4993142;28;20411;-78
2024/01/21 04:01:11;;;;;;;10.07;6.53;;;;;;;-7.51;100.00;98349.00;5004885;28;20551;-77
2024/01/21 04:03:37;;;;;;;9.32;6.22;;;;;;;-7.50;100.00;98337.78;5012662;28;20950;-76
2024/01/21 04:06:05;;;;;;;8.25;5.78;;;;;;;-7.50;100.00;98330.09;5011131;28;20898;-76
2024/01/21 04:08:31;;;;;;;8.02;5.60;;;;;;;-7.52;100.00;98326.81;5011119;28;20392;-76
2024/01/21 04:10:58;;;;;;;7.93;5.57;;;;;;;-7.53;100.00;98325.19;5011153;28;20499;-76
2024/01/21 04:13:24;;;;;;;9.52;5.65;;;;;;;-7.53;100.00;98322.63;5011550;28;20492;-76
2024/01/21 04:15:50;;;;;;;8.07;5.30;;;;;;;-7.52;100.00;98315.72;5008509;28;20436;-76
2024/01/21 04:18:16;;;;;;;7.05;5.10;;;;;;;-7.51;100.00;98310.44;5011118;28;20409;-76
2024/01/21 04:20:42;;;;;;;6.83;5.17;;;;;;;-7.50;100.00;98306.94;5010760;28;20515;-76
2024/01/21 04:23:10;;;;;;;6.93;4.90;;;;;;;-7.49;100.00;98303.44;5010873;28;20484;-76
2024/01/21 04:25:36;;;;;;;6.75;5.10;;;;;;;-7.50;100.00;98306.13;5011046;28;20454;-76
2024/01/21 04:28:02;;;;;;;6.60;4.70;;;;;;;-7.51;100.00;98299.34;5011100;28;20404;-76
2024/01/21 04:30:29;;;;;;;5.60;4.57;;;;;;;-7.53;100.00;98296.09;5012836;28;20474;-76
2024/01/21 04:32:55;;;;;;;6.65;4.72;;;;;;;-7.55;100.00;98283.34;5014805;28;20889;-76
2024/01/21 04:35:21;;;;;;;7.63;4.90;;;;;;;-7.56;100.00;98279.13;5015233;28;20890;-76
2024/01/21 04:37:48;;;;;;;5.70;4.55;;;;;;;-7.57;100.00;98280.06;5014579;28;20399;-76
2024/01/21 04:40:15;;;;;;;5.70;4.40;;;;;;;-7.59;100.00;98281.13;5014641;28;20447;-76
2024/01/21 04:42:41;;;;;;;7.35;4.97;;;;;;;-7.62;100.00;98282.16;5014454;28;20454;-76
2024/01/21 04:45:09;;;;;;;6.73;4.50;;;;;;;-7.64;100.00;98278.88;5014711;28;20441;-76
2024/01/21 04:47:35;;;;;;;6.50;4.72;;;;;;;-7.66;100.00;98275.59;5014468;28;20396;-76
2024/01/21 04:50:02;;;;;;;6.53;4.30;;;;;;;-7.66;100.00;98278.19;5014372;28;20396;-76
2024/01/21 04:52:29;;;;;;;6.72;4.72;;;;;;;-7.67;100.00;98274.00;5014344;28;20404;-76
2024/01/21 04:54:55;;;;;;;7.07;4.60;;;;;;;-7.66;100.00;98270.47;5014207;28;20897;-76
2024/01/21 04:57:22;;;;;;;6.68;4.70;;;;;;;-7.66;100.00;98272.22;5014416;28;20797;-76
2024/01/21 04:59:48;;;;;;;6.10;4.70;;;;;;;-7.67;100.00;98278.31;5014517;28;20492;-76
2024/01/21 05:02:14;;;;;;;6.30;4.40;;;;;;;-7.67;100.00;98281.72;5014290;28;20433;-76
2024/01/21 05:04:40;;;;;;;6.25;4.63;;;;;;;-7.66;100.00;98285.06;4998044;28;20737;-76
2024/01/21 05:07:07;;;;;;;5.80;4.30;;;;;;;-7.67;100.00;98286.84;4994488;28;20409;-76
2024/01/21 05:09:33;;;;;;;5.28;4.43;;;;;;;-7.68;100.00;98287.78;4994642;28;20406;-76
2024/01/21 05:11:59;;;;;;;5.28;3.97;;;;;;;-7.68;100.00;98292.09;5002279;28;20496;-76
2024/01/21 05:14:26;;;;;;;7.93;5.53;;;;;;;-7.70;100.00;98297.34;5014574;28;20436;-77
2024/01/21 05:16:52;;;;;;;6.78;5.25;;;;;;;-7.69;100.00;98298.16;5014738;28;20393;-77
2024/01/21 05:19:19;;;;;;;8.85;4.78;;;;;;;-7.68;100.00;98298.06;5014665;28;20397;-77
2024/01/21 05:21:45;;;;;;;6.72;4.90;;;;;;;-7.67;100.00;98312.56;5014532;28;20420;-77
2024/01/21 05:24:11;;;;;;;6.00;4.22;;;;;;;-7.65;100.00;98317.56;5014812;28;20833;-77
2024/01/21 05:26:43;;;;;;;6.47;4.70;;;;;;;-7.64;100.00;98332.88;5014742;28;20436;-77
2024/01/21 05:29:09;;;;;;;6.60;4.80;;;;;;;-7.63;100.00;98331.13;5015051;28;20396;-77
2024/01/21 05:31:36;;;;;;;6.25;4.63;;;;;;;-7.62;100.00;98338.72;5014701;28;20415;-77
2024/01/21 05:34:02;;;;;;;6.55;4.95;;;;;;;-7.62;100.00;98349.00;5014628;28;20451;-77
2024/01/21 05:36:28;;;;;;;8.05;5.72;;;;;;;-7.62;100.00;98350.75;5014607;28;20401;-77
2024/01/21 05:38:55;;;;;;;13.45;7.60;;;;;;;-7.57;100.00;98351.22;5000207;28;20407;-77
2024/01/21 05:41:21;;;;;;;12.95;7.10;;;;;;;-7.53;100.00;98353.47;4994034;28;20953;-77
2024/01/21 05:43:47;;;;;;;9.67;6.60;;;;;;;-7.49;100.00;98347.16;4995212;28;20819;-77
2024/01/21 05:46:13;;;;;;;10.27;6.83;;;;;;;-7.47;100.00;98347.88;4994808;28;20409;-77
2024/01/21 05:48:41;;;;;;;11.23;7.40;;;;;;;-7.45;100.00;98342.63;4994765;28;20494;-77
2024/01/21 05:51:07;;;;;;;9.75;6.22;;;;;;;-7.43;100.00;98351.00;4994931;28;20494;-77
2024/01/21 05:53:33;;;;;;;10.55;7.28;;;;;;;-7.40;100.00;98367.97;4994881;28;20403;-77
2024/01/21 05:55:59;;;;;;;10.13;6.40;;;;;;;-7.41;100.00;98374.88;4995173;28;20481;-77
2024/01/21 05:58:25;;;;;;;8.70;6.15;;;;;;;-7.43;100.00;98369.00;4994909;28;20457;-77
2024/01/21 06:00:51;;;;;;;14.18;8.27;;;;;;;-7.45;100.00;98373.47;4994758;28;20418;-78
2024/01/21 06:03:17;;;;;;;12.15;7.63;;;;;;;-7.46;100.00;98385.50;4996946;28;20398;-77
2024/01/21 06:05:45;;;;;;;11.75;7.50;;;;;;;-7.45;100.00;98388.91;4994573;28;20395;-77
2024/01/21 06:08:11;;;;;;;10.38;6.85;;;;;;;-7.47;100.00;98383.84;4994545;28;20430;-77
2024/01/21 06:10:37;;;;;;;11.43;7.28;;;;;;;-7.48;100.00;98394.25;4998198;28;20489;-79
2024/01/21 06:13:04;;;;;;;9.93;6.30;;;;;;;-7.50;100.00;98391.78;5010169;28;20404;-79
2024/01/21 06:15:30;;;;;;;9.85;6.20;;;;;;;-7.54;100.00;98392.13;5018317;28;20455;-79
2024/01/21 06:17:56;;;;;;;8.10;5.57;;;;;;;-7.59;100.00;98391.66;5002039;28;20402;-79
2024/01/21 06:20:22;;;;;;;8.87;6.30;;;;;;;-7.65;100.00;98392.09;5000330;28;21211;-77
2024/01/21 06:22:49;;;;;;;8.40;6.20;;;;;;;-7.67;100.00;98387.09;5016521;28;20896;-77
2024/01/21 06:25:17;;;;;;;7.53;5.85;;;;;;;-7.70;100.00;98389.88;5018408;28;20473;-80
2024/01/21 06:27:43;;;;;;;8.02;5.80;;;;;;;-7.72;100.00;98388.34;5013099;28;20394;-78
2024/01/21 06:30:13;;;;;;;7.97;5.60;;;;;;;-7.75;100.00;98384.25;4996085;28;20446;-78
2024/01/21 06:32:39;;;;;;;9.05;5.70;;;;;;;-7.77;100.00;98378.41;4995779;28;20418;-77
2024/01/21 06:35:06;;;;;;;9.93;6.15;;;;;;;-7.80;100.00;98381.19;4997251;28;20454;-77
2024/01/21 06:37:32;;;;;;;8.93;5.90;;;;;;;-7.84;100.00;98372.91;4998047;28;20526;-77
2024/01/21 06:40:00;;;;;;;7.78;5.63;;;;;;;-7.86;100.00;98373.94;4997542;28;20406;-77
2024/01/21 06:42:27;;;;;;;8.55;5.70;;;;;;;-7.90;100.00;98375.91;4996547;28;20883;-78
2024/01/21 06:44:53;;;;;;;8.32;5.85;;;;;;;-7.93;100.00;98371.00;4996339;28;20434;-77
2024/01/21 06:47:19;;;;;;;8.20;5.45;;;;;;;-7.94;100.00;98368.53;4995982;28;20867;-78
2024/01/21 06:49:45;;;;;;;8.43;5.40;;;;;;;-7.96;100.00;98371.19;4996322;28;20487;-77
2024/01/21 06:52:11;;;;;;;9.23;5.70;;;;;;;-7.97;100.00;98374.69;4996494;28;20402;-77
2024/01/21 06:54:37;;;;;;;12.50;7.07;;;;;;;-7.98;100.00;98378.22;4995912;28;20453;-78
2024/01/21 06:57:05;;;;;;;16.13;8.48;;;;;;;-7.99;100.00;98376.56;4997196;28;20841;-78
2024/01/21 06:59:31;;;;;;;11.55;6.88;;;;;;;-7.97;100.00;98372.13;4996187;28;20398;-78
2024/01/21 07:01:57;;;;;;;11.77;6.85;;;;;;;-7.96;100.00;98366.06;4996887;28;20418;-77
2024/01/21 07:04:23;;;;;;;10.50;6.35;;;;;;;-7.95;100.00;98375.41;5015646;28;20806;-77
2024/01/21 07:06:50;;;;;;;8.80;5.63;;;;;;;-7.94;100.00;98366.78;5015948;28;20431;-77
2024/01/21 07:09:16;;;;;;;10.45;6.68;;;;;;;-7.94;100.00;98366.78;5015467;28;20488;-77
2024/01/21 07:11:42;;;;;;;9.07;6.47;;;;;;;-7.93;100.00;98360.72;5016432;28;20498;-78
2024/01/21 07:14:10;;;;;;;8.90;5.95;;;;;;;-7.93;100.00;98360.72;5015917;28;20393;-77
2024/01/21 07:16:36;;;;;;;10.40;6.00;;;;;;;-7.91;100.00;98358.84;5016933;28;20416;-77
2024/01/21 07:19:03;;;;;;;9.80;6.15;;;;;;;-7.89;100.00;98362.13;5016854;28;20468;-77
2024/01/21 07:21:30;;;;;;;9.50;6.38;;;;;;;-7.83;100.00;98358.31;5017205;28;20421;-77
2024/01/21 07:23:56;;;;;;;8.30;6.13;;;;;;;-7.79;100.00;98375.13;5007492;28;20394;-78
2024/01/21 07:26:23;;;;;;;10.07;6.68;;;;;;;-7.73;100.00;98369.53;4997463;28;20402;-78
2024/01/21 07:28:49;;;;;;;12.45;7.78;;;;;;;-7.64;100.00;98376.56;4998493;28;20411;-78
2024/01/21 07:31:17;;;;;;;10.40;7.10;;;;;;;-7.52;100.00;98369.72;4998960;28;20483;-78
2024/01/21 07:33:43;;;;;;;10.48;7.47;;;;;;;-7.39;100.00;98374.75;4998593;28;20477;-77
2024/01/21 07:36:10;;;;;;;10.13;7.20;;;;;;;-7.26;100.00;98380.59;4994313;28;20398;-77
2024/01/21 07:38:36;;;;;;;10.52;7.00;;;;;;;-7.15;100.00;98378.06;4994139;28;20409;-78
2024/01/21 07:41:03;;;;;;;9.67;6.57;;;;;;;-7.05;100.00;98386.69;4992495;28;20464;-77
2024/01/21 07:43:29;;;;;;;8.77;6.20;;;;;;;-6.97;100.00;98386.94;4995800;28;20405;-79
2024/01/21 07:45:56;;;;;;;10.88;7.22;;;;;;;-6.85;100.00;98395.50;4995134;28;20403;-78
2024/01/21 07:48:23;;;;;;;9.27;6.82;;;;;;;-6.69;100.00;98394.19;4994719;28;20942;-76
2024/01/21 07:50:50;;;;;;;11.40;8.02;;;;;;;-6.51;100.00;98389.38;4991008;28;20408;-78
2024/01/21 07:53:19;;;;;;;13.02;8.30;;;;;;;-6.33;100.00;98384.53;4990298;28;20394;-77
2024/01/21 07:55:45;;;;;;;12.70;8.75;;;;;;;-6.15;100.00;98372.75;4994969;28;20410;-78
2024/01/21 07:58:15;;;;;;;11.20;7.72;;;;;;;-5.99;100.00;98378.34;5008600;28;20532;-77
2024/01/21 08:00:41;;;;;;;11.82;8.77;;;;;;;-5.82;100.00;98363.25;5012418;28;20490;-77
2024/01/21 08:03:07;;;;;;;12.68;8.80;;;;;;;-5.68;100.00;98362.94;4999977;28;20402;-77
2024/01/21 08:05:35;;;;;;;11.52;8.70;;;;;;;-5.53;100.00;98372.00;5005750;28;20398;-77
2024/01/21 08:08:02;;;;;;;14.68;9.40;;;;;;;-5.43;100.00;98374.66;5000278;28;20473;-78
2024/01/21 08:10:28;;;;;;;15.18;10.32;;;;;;;-5.29;100.00;98374.31;5003252;28;20421;-78
2024/01/21 08:12:54;;;;;;;18.08;11.73;;;;;;;-5.16;100.00;98367.19;4997744;28;20404;-78
2024/01/21 08:15:20;;;;;;;17.02;11.38;;;;;;;-5.00;100.00;98362.38;4997259;28;20453;-79
2024/01/21 08:17:47;;;;;;;18.23;11.85;;;;;;;-4.83;100.00;98372.09;5002785;28;20419;-78
2024/01/21 08:20:13;;;;;;;15.30;10.50;;;;;;;-4.61;100.00;98376.25;5010102;28;20430;-78
2024/01/21 08:22:40;;;;;;;14.15;10.57;;;;;;;-4.47;100.00;98375.06;5000602;28;20414;-78
2024/01/21 08:25:07;;;;;;;14.93;10.82;;;;;;;-4.37;100.00;98392.22;4998566;28;20498;-77
2024/01/21 08:27:33;;;;;;;14.80;10.80;;;;;;;-4.26;100.00;98395.63;4999678;28;20875;-77
2024/01/21 08:29:59;;;;;;;14.40;10.63;;;;;;;-4.19;100.00;98400.13;5000207;28;20729;-78
2024/01/21 08:32:27;;;;;;;16.70;10.07;;;;;;;-4.11;100.00;98394.28;4999607;28;21398;-77
2024/01/21 08:34:53;;;;;;;16.15;10.43;;;;;;;-4.01;100.00;98403.72;4999338;28;20778;-77
2024/01/21 08:37:19;;;;;;;14.77;10.10;;;;;;;-3.93;100.00;98405.63;4998733;28;20445;-76
2024/01/21 08:39:48;;;;;;;18.38;12.10;;;;;;;-3.89;100.00;98406.97;4999474;28;20804;-77
2024/01/21 08:42:14;;;;;;;12.55;9.25;;;;;;;-3.76;100.00;98399.75;4998960;28;20538;-78
2024/01/21 08:44:40;;;;;;;13.10;8.85;;;;;;;-3.66;100.00;98395.41;4995427;28;20902;-77
2024/01/21 08:47:06;;;;;;;13.15;8.95;;;;;;;-3.57;100.00;98404.13;4991264;28;20799;-78
2024/01/21 08:49:32;;;;;;;11.48;8.70;;;;;;;-3.51;100.00;98385.47;4991411;28;20957;-80
2024/01/21 08:51:58;;;;;;;12.55;8.80;;;;;;;-3.43;100.00;98389.94;4994441;28;20409;-78
2024/01/21 08:54:25;;;;;;;11.90;8.48;;;;;;;-3.37;100.00;98394.56;4999559;28;20423;-80
2024/01/21 08:56:52;;;;;;;11.48;8.52;;;;;;;-3.35;100.00;98390.88;4999851;28;20415;-82
2024/01/21 08:59:19;;;;;;;12.05;8.52;;;;;;;-3.32;100.00;98392.41;4994071;28;20434;-82
2024/01/21 09:01:45;;;;;;;9.47;7.37;;;;;;;-3.29;100.00;98403.28;4994435;28;20440;-82
2024/01/21 09:04:11;;;;;;;11.60;8.68;;;;;;;-3.30;100.00;98396.47;4994384;28;20431;-80
2024/01/21 09:06:41;;;;;;;10.73;8.38;;;;;;;-3.27;100.00;98403.13;4983439;28;20434;-79
2024/01/21 09:09:11;;;;;;;10.10;8.07;;;;;;;-3.26;100.00;98400.41;4983951;28;20419;-79
2024/01/21 09:11:38;;;;;;;9.98;7.70;;;;;;;-3.24;100.00;98403.69;4983757;28;20404;-81
2024/01/21 09:14:05;;;;;;;10.43;7.80;;;;;;;-3.22;100.00;98400.94;4984976;28;20416;-80
2024/01/21 09:16:31;;;;;;;9.15;7.28;;;;;;;-3.22;100.00;98401.75;4982518;28;20412;-79
2024/01/21 09:18:58;;;;;;;10.10;7.65;;;;;;;-3.20;100.00;98402.44;4983681;28;20400;-78
2024/01/21 09:21:24;;;;;;;11.00;7.90;;;;;;;-3.16;100.00;98398.59;4984162;28;20431;-79
2024/01/21 09:23:52;;;;;;;8.20;6.82;;;;;;;-3.12;100.00;98399.97;4983423;28;20419;-78
2024/01/21 09:26:19;;;;;;;7.80;6.55;;;;;;;-3.07;100.00;98407.31;4977611;28;20885;-77
2024/01/21 09:28:45;;;;;;;8.80;6.60;;;;;;;-3.01;100.00;98411.13;4980563;28;20408;-82
2024/01/21 09:31:12;;;;;;;9.82;6.70;;;;;;;-2.94;100.00;98400.06;4981453;28;20408;-78
2024/01/21 09:33:38;;;;;;;9.50;6.82;;;;;;;-2.87;100.00;98401.13;4980228;28;20471;-79
2024/01/21 09:36:05;;;;;;;8.00;6.57;;;;;;;-2.79;100.00;98390.88;4981029;28;20762;-81
2024/01/21 09:38:31;;;;;;;8.77;6.68;;;;;;;-2.70;100.00;98391.78;4981621;28;20487;-79
2024/01/21 09:41:07;;;;;;;9.23;7.30;;;;;;;-2.60;100.00;98400.34;4982986;28;20811;-79
2024/01/21 09:43:34;;;;;;;12.95;9.52;;;;;;;-2.47;100.00;98406.00;4983478;28;20432;-79
2024/01/21 09:46:02;;;;;;;14.43;9.93;;;;;;;-2.36;100.00;98408.41;4979856;28;20408;-78
2024/01/21 09:48:30;;;;;;;16.48;10.60;;;;;;;-2.24;100.00;98405.59;4981101;28;20893;-79
2024/01/21 09:50:58;;;;;;;23.30;13.87;;;;;;;-2.16;100.00;98422.09;4981928;28;20416;-80
2024/01/21 09:53:24;;;;;;;17.80;11.50;;;;;;;-2.02;100.00;98437.16;4991439;28;20427;-80
2024/01/21 09:55:55;;;;;;;19.30;11.88;;;;;;;-1.88;100.00;98430.63;4989724;28;20774;-79
2024/01/21 09:58:22;;;;;;;13.65;9.90;;;;;;;-1.71;100.00;98429.84;5001846;28;20587;-79
2024/01/21 10:00:49;;;;;;;11.18;8.90;;;;;;;-1.52;100.00;98428.91;5006005;28;20605;-80
2024/01/21 10:03:16;;;;;;;10.68;8.18;;;;;;;-1.31;100.00;98426.78;5008539;28;20404;-79
2024/01/21 10:05:43;;;;;;;11.30;7.95;;;;;;;-1.02;100.00;98426.50;4990126;28;20404;-79
2024/01/21 10:08:10;;;;;;;9.77;8.15;;;;;;;-0.73;100.00;98428.78;4991384;28;20463;-79
2024/01/21 10:10:36;;;;;;;8.63;7.55;;;;;;;-0.42;100.00;98427.34;4988918;28;20414;-80
2024/01/21 10:13:05;;;;;;;14.37;8.80;;;;;;;-0.19;100.00;98437.19;4986686;28;20431;-79
2024/01/21 10:15:33;;;;;;;12.82;8.43;;;;;;;-0.07;100.00;98428.09;4982383;28;20532;-79
2024/01/21 10:17:59;;;;;;;13.88;8.93;;;;;;;-0.12;100.00;98414.75;4980921;28;20411;-79
2024/01/21 10:20:26;;;;;;;11.77;8.83;;;;;;;0.05;100.00;98419.03;4981083;28;20940;-80
2024/01/21 10:23:09;;;;;;;9.85;8.18;;;;;;;0.24;100.00;98431.75;4981004;28;20452;-79
2024/01/21 10:25:36;;;;;;;8.82;7.05;;;;;;;0.44;100.00;98444.50;4981568;28;20471;-79
2024/01/21 10:28:02;;;;;;;9.57;7.18;;;;;;;0.65;100.00;98447.44;4981835;28;20419;-79
2024/01/21 10:30:29;;;;;;;7.63;6.45;;;;;;;0.94;100.00;98446.97;4981220;28;20400;-79
2024/01/21 10:32:55;;;;;;;7.63;6.25;;;;;;;1.28;100.00;98425.91;4980283;28;20743;-79
2024/01/21 10:35:21;;;;;;;10.27;7.05;;;;;;;1.58;100.00;98406.09;4980321;28;20407;-79
2024/01/21 10:37:47;;;;;;;6.82;5.95;;;;;;;2.00;100.00;98387.44;4981315;28;20482;-79
2024/01/21 10:40:15;;;;;;;8.43;6.37;;;;;;;2.32;100.00;98440.31;4987089;28;20408;-80
2024/01/21 10:42:42;;;;;;;6.50;5.80;;;;;;;2.46;100.00;98438.75;4981634;28;20479;-79
2024/01/21 10:45:09;;;;;;;6.32;5.40;;;;;;;2.48;100.00;98428.91;4995752;28;20409;-79
2024/01/21 10:47:37;;;;;;;6.30;5.40;;;;;;;2.43;100.00;98448.72;4986094;28;20415;-79
2024/01/21 10:50:06;;;;;;;7.15;5.70;;;;;;;2.36;100.00;98438.16;4989577;28;20394;-79
2024/01/21 10:52:33;;;;;;;4.97;4.47;;;;;;;2.32;100.00;98434.28;4989287;28;20435;-79
2024/01/21 10:55:00;;;;;;;5.80;4.90;;;;;;;2.34;100.00;98435.69;4987708;28;20453;-79
2024/01/21 10:57:27;;;;;;;6.05;4.47;;;;;;;2.43;100.00;98431.25;4986633;28;20501;-79
2024/01/21 10:59:53;;;;;;;4.95;4.45;;;;;;;2.63;100.00;98419.31;4989221;28;20403;-79
2024/01/21 11:02:20;;;;;;;5.00;4.50;;;;;;;2.85;100.00;98428.16;4994790;28;20430;-78
2024/01/21 11:04:46;;;;;;;6.03;4.60;;;;;;;3.03;100.00;98414.75;4999384;28;20421;-79
2024/01/21 11:07:13;;;;;;;5.15;4.57;;;;;;;3.15;100.00;98421.19;4996448;28;20400;-79
2024/01/21 11:09:40;;;;;;;5.18;4.55;;;;;;;3.31;100.00;98433.28;4986528;28;20827;-79
2024/01/21 11:12:08;;;;;;;5.63;4.50;;;;;;;3.32;100.00;98440.94;4985892;28;20407;-79
2024/01/21 11:14:37;;;;;;;8.07;5.57;;;;;;;3.22;100.00;98447.44;4979636;28;20478;-80
2024/01/21 11:17:04;;;;;;;6.10;4.95;;;;;;;3.08;100.00;98478.59;4979870;28;20406;-79
2024/01/21 11:19:36;;;;;;;6.20;4.97;;;;;;;2.94;100.00;98489.84;4980783;28;20408;-79